sensor_id;sensor_type;location;lat;lon;timestamp;pressure;altitude;pressure_sealevel;temperature;humidity
61292;BME280;47165;42.664;23.368;2023-03-13T00:01:54;95256.63;;;3.87;44.42
61292;BME280;47165;42.664;23.368;2023-03-13T00:04:20;95250.44;;;3.94;44.39
61292;BME280;47165;42.664;23.368;2023-03-13T00:06:45;95251.06;;;4.02;43.99
61292;BME280;47165;42.664;23.368;2023-03-13T00:09:13;95260.28;;;4.12;44.10
61292;BME280;47165;42.664;23.368;2023-03-13T00:11:39;95258.31;;;4.20;43.38
61292;BME280;47165;42.664;23.368;2023-03-13T00:14:05;95255.97;;;4.11;43.37
61292;BME280;47165;42.664;23.368;2023-03-13T00:16:31;95245.75;;;4.08;43.99
61292;BME280;47165;42.664;23.368;2023-03-13T00:18:58;95259.41;;;4.12;43.65
61292;BME280;47165;42.664;23.368;2023-03-13T00:21:25;95266.00;;;3.91;44.13
61292;BME280;47165;42.664;23.368;2023-03-13T00:23:51;95267.63;;;3.62;44.88
61292;BME280;47165;42.664;23.368;2023-03-13T00:26:19;95272.59;;;3.70;44.76
61292;BME280;47165;42.664;23.368;2023-03-13T00:28:45;95272.91;;;3.57;44.89
61292;BME280;47165;42.664;23.368;2023-03-13T00:33:41;95274.59;;;3.91;44.19
61292;BME280;47165;42.664;23.368;2023-03-13T00:36:12;95257.66;;;3.81;44.38
61292;BME280;47165;42.664;23.368;2023-03-13T00:38:38;95271.06;;;3.27;45.07
61292;BME280;47165;42.664;23.368;2023-03-13T00:41:09;95279.84;;;3.19;45.59
61292;BME280;47165;42.664;23.368;2023-03-13T00:43:39;95274.97;;;3.07;46.21
61292;BME280;47165;42.664;23.368;2023-03-13T00:46:05;95279.31;;;2.66;47.32
61292;BME280;47165;42.664;23.368;2023-03-13T00:48:31;95285.94;;;2.78;47.15
61292;BME280;47165;42.664;23.368;2023-03-13T00:51:00;95275.75;;;3.11;46.42
61292;BME280;47165;42.664;23.368;2023-03-13T00:53:26;95266.84;;;3.24;45.73
61292;BME280;47165;42.664;23.368;2023-03-13T00:56:00;95264.53;;;2.74;46.14
61292;BME280;47165;42.664;23.368;2023-03-13T00:58:27;95262.41;;;2.93;46.33
61292;BME280;47165;42.664;23.368;2023-03-13T01:00:54;95266.38;;;3.07;46.22
61292;BME280;47165;42.664;23.368;2023-03-13T01:03:21;95270.16;;;3.29;45.63
61292;BME280;47165;42.664;23.368;2023-03-13T01:06:00;95279.19;;;3.47;45.05
61292;BME280;47165;42.664;23.368;2023-03-13T01:08:26;95272.78;;;3.62;44.65
61292;BME280;47165;42.664;23.368;2023-03-13T01:11:23;95272.56;;;3.71;44.33
61292;BME280;47165;42.664;23.368;2023-03-13T01:13:49;95259.69;;;3.35;45.00
61292;BME280;47165;42.664;23.368;2023-03-13T01:16:19;95266.91;;;2.85;45.72
61292;BME280;47165;42.664;23.368;2023-03-13T01:18:48;95272.00;;;2.87;46.20
61292;BME280;47165;42.664;23.368;2023-03-13T01:21:15;95268.03;;;3.09;46.09
61292;BME280;47165;42.664;23.368;2023-03-13T01:23:43;95263.22;;;3.31;45.45
61292;BME280;47165;42.664;23.368;2023-03-13T01:26:09;95259.38;;;3.48;45.11
61292;BME280;47165;42.664;23.368;2023-03-13T01:28:35;95265.84;;;3.64;44.92
61292;BME280;47165;42.664;23.368;2023-03-13T01:31:10;95271.63;;;3.74;44.79
61292;BME280;47165;42.664;23.368;2023-03-13T01:33:35;95273.25;;;3.76;44.17
61292;BME280;47165;42.664;23.368;2023-03-13T01:36:01;95281.00;;;3.76;44.19
61292;BME280;47165;42.664;23.368;2023-03-13T01:38:27;95277.56;;;3.77;44.35
61292;BME280;47165;42.664;23.368;2023-03-13T01:40:53;95272.22;;;3.83;44.43
61292;BME280;47165;42.664;23.368;2023-03-13T01:43:25;95280.69;;;3.89;44.13
61292;BME280;47165;42.664;23.368;2023-03-13T01:46:07;95282.31;;;3.93;44.27
61292;BME280;47165;42.664;23.368;2023-03-13T01:53:55;95291.19;;;3.82;44.38
61292;BME280;47165;42.664;23.368;2023-03-13T01:56:33;95294.72;;;3.78;45.11
61292;BME280;47165;42.664;23.368;2023-03-13T01:59:01;95288.75;;;3.76;44.87
61292;BME280;47165;42.664;23.368;2023-03-13T02:01:28;95289.66;;;3.75;45.09
61292;BME280;47165;42.664;23.368;2023-03-13T02:03:55;95287.16;;;3.72;45.05
61292;BME280;47165;42.664;23.368;2023-03-13T02:06:22;95283.72;;;3.72;45.35
61292;BME280;47165;42.664;23.368;2023-03-13T02:08:52;95289.66;;;3.75;45.27
61292;BME280;47165;42.664;23.368;2023-03-13T02:11:29;95296.59;;;3.73;45.71
61292;BME280;47165;42.664;23.368;2023-03-13T02:13:57;95281.31;;;3.64;46.01
61292;BME280;47165;42.664;23.368;2023-03-13T02:16:23;95291.97;;;3.52;46.33
61292;BME280;47165;42.664;23.368;2023-03-13T02:18:49;95292.25;;;3.41;46.65
61292;BME280;47165;42.664;23.368;2023-03-13T02:21:29;95302.44;;;3.46;46.99
61292;BME280;47165;42.664;23.368;2023-03-13T02:26:45;95299.84;;;3.46;47.38
61292;BME280;47165;42.664;23.368;2023-03-13T02:29:11;95312.56;;;3.55;47.17
61292;BME280;47165;42.664;23.368;2023-03-13T02:31:44;95318.75;;;3.48;48.02
61292;BME280;47165;42.664;23.368;2023-03-13T02:34:12;95311.78;;;3.51;47.67
61292;BME280;47165;42.664;23.368;2023-03-13T02:36:38;95316.63;;;3.63;47.69
61292;BME280;47165;42.664;23.368;2023-03-13T02:39:05;95323.38;;;3.69;47.10
61292;BME280;47165;42.664;23.368;2023-03-13T02:41:32;95318.22;;;3.69;47.60
61292;BME280;47165;42.664;23.368;2023-03-13T02:43:59;95338.66;;;3.77;47.48
61292;BME280;47165;42.664;23.368;2023-03-13T02:46:24;95339.38;;;3.83;46.87
61292;BME280;47165;42.664;23.368;2023-03-13T02:48:52;95348.81;;;3.85;47.05
61292;BME280;47165;42.664;23.368;2023-03-13T02:51:40;95359.03;;;3.89;46.94
61292;BME280;47165;42.664;23.368;2023-03-13T02:54:09;95354.88;;;3.83;47.81
61292;BME280;47165;42.664;23.368;2023-03-13T02:56:37;95356.56;;;3.85;47.87
61292;BME280;47165;42.664;23.368;2023-03-13T02:59:04;95347.13;;;3.83;48.07
61292;BME280;47165;42.664;23.368;2023-03-13T03:01:30;95362.53;;;3.87;47.71
61292;BME280;47165;42.664;23.368;2023-03-13T03:03:56;95355.69;;;3.86;48.07
61292;BME280;47165;42.664;23.368;2023-03-13T03:06:22;95357.47;;;3.83;48.09
61292;BME280;47165;42.664;23.368;2023-03-13T03:08:47;95351.44;;;3.83;48.00
61292;BME280;47165;42.664;23.368;2023-03-13T03:11:13;95351.50;;;3.81;48.41
61292;BME280;47165;42.664;23.368;2023-03-13T03:13:38;95348.91;;;3.81;48.11
61292;BME280;47165;42.664;23.368;2023-03-13T03:16:12;95352.19;;;3.88;47.90
61292;BME280;47165;42.664;23.368;2023-03-13T03:18:39;95356.75;;;3.41;49.03
61292;BME280;47165;42.664;23.368;2023-03-13T03:21:05;95373.22;;;3.35;49.78
61292;BME280;47165;42.664;23.368;2023-03-13T03:23:32;95386.66;;;3.50;49.44
61292;BME280;47165;42.664;23.368;2023-03-13T03:25:58;95372.06;;;3.49;49.04
61292;BME280;47165;42.664;23.368;2023-03-13T03:28:23;95395.16;;;3.55;49.21
61292;BME280;47165;42.664;23.368;2023-03-13T03:30:49;95400.09;;;3.64;49.10
61292;BME280;47165;42.664;23.368;2023-03-13T03:33:17;95398.50;;;3.58;49.71
61292;BME280;47165;42.664;23.368;2023-03-13T03:35:42;95402.13;;;3.51;49.50
61292;BME280;47165;42.664;23.368;2023-03-13T03:38:08;95407.19;;;3.56;49.71
61292;BME280;47165;42.664;23.368;2023-03-13T03:40:33;95408.13;;;3.52;49.49
61292;BME280;47165;42.664;23.368;2023-03-13T03:42:59;95404.59;;;3.56;49.59
61292;BME280;47165;42.664;23.368;2023-03-13T03:45:24;95408.00;;;3.58;49.49
61292;BME280;47165;42.664;23.368;2023-03-13T03:47:49;95411.66;;;3.48;49.69
61292;BME280;47165;42.664;23.368;2023-03-13T03:50:15;95432.19;;;3.54;49.48
61292;BME280;47165;42.664;23.368;2023-03-13T03:52:40;95439.09;;;3.52;49.73
61292;BME280;47165;42.664;23.368;2023-03-13T03:55:06;95435.13;;;3.38;49.75
61292;BME280;47165;42.664;23.368;2023-03-13T03:57:31;95435.81;;;3.47;49.65
61292;BME280;47165;42.664;23.368;2023-03-13T03:59:57;95435.03;;;3.41;50.07
61292;BME280;47165;42.664;23.368;2023-03-13T04:02:22;95439.38;;;3.39;50.19
61292;BME280;47165;42.664;23.368;2023-03-13T04:04:48;95435.97;;;3.37;49.70
61292;BME280;47165;42.664;23.368;2023-03-13T04:07:13;95446.25;;;3.40;49.75
61292;BME280;47165;42.664;23.368;2023-03-13T04:09:38;95443.72;;;3.37;49.93
61292;BME280;47165;42.664;23.368;2023-03-13T04:12:04;95447.38;;;3.27;50.18
61292;BME280;47165;42.664;23.368;2023-03-13T04:14:30;95458.53;;;3.29;50.58
61292;BME280;47165;42.664;23.368;2023-03-13T04:16:55;95468.88;;;3.28;50.46
61292;BME280;47165;42.664;23.368;2023-03-13T04:19:20;95467.91;;;3.33;50.20
61292;BME280;47165;42.664;23.368;2023-03-13T04:21:46;95464.53;;;3.30;50.15
61292;BME280;47165;42.664;23.368;2023-03-13T04:24:11;95457.72;;;3.27;50.33
61292;BME280;47165;42.664;23.368;2023-03-13T04:26:37;95471.44;;;3.29;50.03
61292;BME280;47165;42.664;23.368;2023-03-13T04:29:02;95475.78;;;3.27;49.83
61292;BME280;47165;42.664;23.368;2023-03-13T04:31:30;95474.22;;;3.20;50.04
61292;BME280;47165;42.664;23.368;2023-03-13T04:33:56;95468.16;;;3.21;50.19
61292;BME280;47165;42.664;23.368;2023-03-13T04:36:21;95483.59;;;3.24;50.48
61292;BME280;47165;42.664;23.368;2023-03-13T04:38:47;95490.44;;;3.25;50.03
61292;BME280;47165;42.664;23.368;2023-03-13T04:41:12;95476.84;;;3.17;49.76
61292;BME280;47165;42.664;23.368;2023-03-13T04:43:37;95486.50;;;3.07;50.63
61292;BME280;47165;42.664;23.368;2023-03-13T04:46:03;95507.94;;;3.11;50.31
61292;BME280;47165;42.664;23.368;2023-03-13T04:48:28;95505.44;;;3.06;50.41
61292;BME280;47165;42.664;23.368;2023-03-13T04:50:54;95511.34;;;3.13;50.44
61292;BME280;47165;42.664;23.368;2023-03-13T04:53:19;95513.03;;;3.14;50.40
61292;BME280;47165;42.664;23.368;2023-03-13T04:55:46;95504.38;;;3.18;50.28
61292;BME280;47165;42.664;23.368;2023-03-13T04:58:12;95512.03;;;3.21;49.70
61292;BME280;47165;42.664;23.368;2023-03-13T05:00:41;95505.19;;;3.20;49.83
61292;BME280;47165;42.664;23.368;2023-03-13T05:03:06;95509.28;;;3.30;49.49
61292;BME280;47165;42.664;23.368;2023-03-13T05:05:35;95517.63;;;3.41;49.84
61292;BME280;47165;42.664;23.368;2023-03-13T05:08:01;95523.03;;;3.31;50.75
61292;BME280;47165;42.664;23.368;2023-03-13T05:10:27;95518.81;;;3.27;51.53
61292;BME280;47165;42.664;23.368;2023-03-13T05:12:52;95504.44;;;3.13;51.38
61292;BME280;47165;42.664;23.368;2023-03-13T05:15:17;95512.63;;;3.34;49.43
61292;BME280;47165;42.664;23.368;2023-03-13T05:17:43;95522.06;;;3.36;49.34
61292;BME280;47165;42.664;23.368;2023-03-13T05:20:09;95528.94;;;3.36;49.74
61292;BME280;47165;42.664;23.368;2023-03-13T05:22:36;95531.72;;;3.25;50.13
61292;BME280;47165;42.664;23.368;2023-03-13T05:25:02;95538.06;;;3.09;50.39
61292;BME280;47165;42.664;23.368;2023-03-13T05:27:28;95537.28;;;3.05;50.81
61292;BME280;47165;42.664;23.368;2023-03-13T05:29:53;95538.03;;;3.12;50.39
61292;BME280;47165;42.664;23.368;2023-03-13T05:32:19;95543.13;;;3.13;50.09
61292;BME280;47165;42.664;23.368;2023-03-13T05:34:44;95539.72;;;3.11;49.86
61292;BME280;47165;42.664;23.368;2023-03-13T05:37:09;95548.22;;;3.18;50.11
61292;BME280;47165;42.664;23.368;2023-03-13T05:39:35;95549.81;;;3.23;49.64
61292;BME280;47165;42.664;23.368;2023-03-13T05:42:00;95548.72;;;3.35;49.67
61292;BME280;47165;42.664;23.368;2023-03-13T05:44:26;95548.81;;;3.32;49.94
61292;BME280;47165;42.664;23.368;2023-03-13T05:46:52;95553.66;;;3.48;49.87
61292;BME280;47165;42.664;23.368;2023-03-13T05:49:17;95558.69;;;3.54;49.03
61292;BME280;47165;42.664;23.368;2023-03-13T05:51:42;95551.88;;;3.50;49.54
61292;BME280;47165;42.664;23.368;2023-03-13T05:54:08;95560.34;;;3.56;50.31
61292;BME280;47165;42.664;23.368;2023-03-13T05:56:33;95559.63;;;3.50;50.32
61292;BME280;47165;42.664;23.368;2023-03-13T05:58:59;95558.84;;;3.46;49.59
61292;BME280;47165;42.664;23.368;2023-03-13T06:01:24;95562.28;;;3.47;49.43
61292;BME280;47165;42.664;23.368;2023-03-13T06:03:49;95568.28;;;3.47;49.64
61292;BME280;47165;42.664;23.368;2023-03-13T06:06:15;95569.25;;;3.41;49.43
61292;BME280;47165;42.664;23.368;2023-03-13T06:08:40;95565.00;;;3.40;49.60
61292;BME280;47165;42.664;23.368;2023-03-13T06:11:06;95577.31;;;3.26;50.17
61292;BME280;47165;42.664;23.368;2023-03-13T06:13:31;95575.78;;;3.16;50.04
61292;BME280;47165;42.664;23.368;2023-03-13T06:15:57;95574.88;;;3.18;49.88
61292;BME280;47165;42.664;23.368;2023-03-13T06:18:23;95572.34;;;3.15;49.73
61292;BME280;47165;42.664;23.368;2023-03-13T06:20:56;95568.94;;;3.13;50.11
61292;BME280;47165;42.664;23.368;2023-03-13T06:23:22;95571.59;;;3.09;50.34
61292;BME280;47165;42.664;23.368;2023-03-13T06:25:47;95565.53;;;3.11;50.35
61292;BME280;47165;42.664;23.368;2023-03-13T06:28:13;95573.31;;;3.10;50.66
61292;BME280;47165;42.664;23.368;2023-03-13T06:30:38;95574.16;;;3.12;50.21
61292;BME280;47165;42.664;23.368;2023-03-13T06:33:04;95593.97;;;3.08;50.89
61292;BME280;47165;42.664;23.368;2023-03-13T06:35:29;95584.09;;;2.85;51.97
61292;BME280;47165;42.664;23.368;2023-03-13T06:37:54;95562.56;;;2.86;51.86
61292;BME280;47165;42.664;23.368;2023-03-13T06:40:20;95567.72;;;2.86;52.34
61292;BME280;47165;42.664;23.368;2023-03-13T06:42:45;95559.13;;;2.87;52.59
61292;BME280;47165;42.664;23.368;2023-03-13T06:45:11;95541.22;;;2.78;52.94
61292;BME280;47165;42.664;23.368;2023-03-13T06:47:36;95551.31;;;2.90;52.10
61292;BME280;47165;42.664;23.368;2023-03-13T06:50:02;95558.06;;;2.97;52.64
61292;BME280;47165;42.664;23.368;2023-03-13T06:52:27;95558.84;;;3.01;52.38
61292;BME280;47165;42.664;23.368;2023-03-13T06:54:53;95568.28;;;3.04;52.39
61292;BME280;47165;42.664;23.368;2023-03-13T06:57:18;95569.84;;;3.11;51.60
61292;BME280;47165;42.664;23.368;2023-03-13T06:59:43;95569.72;;;3.17;50.92
61292;BME280;47165;42.664;23.368;2023-03-13T07:02:10;95552.50;;;3.19;51.56
61292;BME280;47165;42.664;23.368;2023-03-13T07:04:36;95555.75;;;3.29;51.61
61292;BME280;47165;42.664;23.368;2023-03-13T07:07:01;95544.59;;;3.27;52.03
61292;BME280;47165;42.664;23.368;2023-03-13T07:09:27;95550.47;;;3.35;51.43
61292;BME280;47165;42.664;23.368;2023-03-13T07:11:53;95553.78;;;3.41;51.16
61292;BME280;47165;42.664;23.368;2023-03-13T07:14:19;95556.19;;;3.49;50.96
61292;BME280;47165;42.664;23.368;2023-03-13T07:16:45;95555.28;;;3.52;50.81
61292;BME280;47165;42.664;23.368;2023-03-13T07:19:10;95551.84;;;3.53;51.23
61292;BME280;47165;42.664;23.368;2023-03-13T07:21:36;95549.19;;;3.56;50.97
61292;BME280;47165;42.664;23.368;2023-03-13T07:24:02;95548.31;;;3.57;51.04
61292;BME280;47165;42.664;23.368;2023-03-13T07:26:28;95549.88;;;3.64;50.80
61292;BME280;47165;42.664;23.368;2023-03-13T07:28:54;95552.34;;;3.69;50.81
61292;BME280;47165;42.664;23.368;2023-03-13T07:31:20;95546.22;;;3.73;50.70
61292;BME280;47165;42.664;23.368;2023-03-13T07:33:47;95545.28;;;3.77;50.36
61292;BME280;47165;42.664;23.368;2023-03-13T07:36:14;95545.22;;;3.80;50.36
61292;BME280;47165;42.664;23.368;2023-03-13T07:38:40;95541.63;;;3.87;50.41
61292;BME280;47165;42.664;23.368;2023-03-13T07:41:10;95543.50;;;3.79;50.63
61292;BME280;47165;42.664;23.368;2023-03-13T07:43:36;95554.53;;;3.87;51.03
61292;BME280;47165;42.664;23.368;2023-03-13T07:46:03;95550.97;;;3.93;50.49
61292;BME280;47165;42.664;23.368;2023-03-13T07:48:32;95555.25;;;3.94;50.29
61292;BME280;47165;42.664;23.368;2023-03-13T07:50:58;95555.16;;;3.98;50.30
61292;BME280;47165;42.664;23.368;2023-03-13T07:53:24;95549.88;;;4.03;49.97
61292;BME280;47165;42.664;23.368;2023-03-13T07:55:58;95552.31;;;4.09;49.75
61292;BME280;47165;42.664;23.368;2023-03-13T07:58:26;95542.00;;;4.08;49.27
61292;BME280;47165;42.664;23.368;2023-03-13T08:00:52;95530.53;;;4.21;49.72
61292;BME280;47165;42.664;23.368;2023-03-13T08:03:17;95532.13;;;4.27;49.46
61292;BME280;47165;42.664;23.368;2023-03-13T08:05:43;95536.34;;;4.31;49.24
61292;BME280;47165;42.664;23.368;2023-03-13T08:08:08;95528.06;;;4.16;48.91
61292;BME280;47165;42.664;23.368;2023-03-13T08:10:34;95531.38;;;4.21;49.01
61292;BME280;47165;42.664;23.368;2023-03-13T08:13:00;95532.00;;;4.31;49.56
61292;BME280;47165;42.664;23.368;2023-03-13T08:15:25;95519.88;;;4.33;48.81
61292;BME280;47165;42.664;23.368;2023-03-13T08:17:53;95522.19;;;4.46;48.88
61292;BME280;47165;42.664;23.368;2023-03-13T08:20:18;95525.44;;;4.52;48.99
61292;BME280;47165;42.664;23.368;2023-03-13T08:22:44;95520.94;;;4.60;48.29
61292;BME280;47165;42.664;23.368;2023-03-13T08:25:15;95530.34;;;4.63;47.83
61292;BME280;47165;42.664;23.368;2023-03-13T08:27:40;95526.88;;;4.64;48.18
61292;BME280;47165;42.664;23.368;2023-03-13T08:30:06;95531.00;;;4.71;48.05
61292;BME280;47165;42.664;23.368;2023-03-13T08:32:32;95529.03;;;4.81;47.68
61292;BME280;47165;42.664;23.368;2023-03-13T08:34:58;95531.56;;;4.84;47.51
61292;BME280;47165;42.664;23.368;2023-03-13T08:37:23;95534.84;;;4.89;47.25
61292;BME280;47165;42.664;23.368;2023-03-13T08:39:48;95537.25;;;4.97;47.15
61292;BME280;47165;42.664;23.368;2023-03-13T08:42:14;95543.19;;;5.00;46.58
61292;BME280;47165;42.664;23.368;2023-03-13T08:44:40;95535.44;;;5.00;45.85
61292;BME280;47165;42.664;23.368;2023-03-13T08:47:06;95536.97;;;5.08;46.48
61292;BME280;47165;42.664;23.368;2023-03-13T08:49:31;95527.25;;;5.16;46.58
61292;BME280;47165;42.664;23.368;2023-03-13T08:51:57;95534.63;;;5.30;46.31
61292;BME280;47165;42.664;23.368;2023-03-13T08:54:22;95524.41;;;5.25;46.99
61292;BME280;47165;42.664;23.368;2023-03-13T08:56:48;95523.34;;;5.32;46.70
61292;BME280;47165;42.664;23.368;2023-03-13T08:59:13;95515.59;;;5.31;46.66
61292;BME280;47165;42.664;23.368;2023-03-13T09:01:40;95509.41;;;5.36;45.78
61292;BME280;47165;42.664;23.368;2023-03-13T09:04:06;95519.16;;;5.58;46.15
61292;BME280;47165;42.664;23.368;2023-03-13T09:06:33;95513.63;;;5.40;46.05
61292;BME280;47165;42.664;23.368;2023-03-13T09:08:59;95520.56;;;5.38;46.67
61292;BME280;47165;42.664;23.368;2023-03-13T09:11:25;95518.44;;;5.53;45.82
61292;BME280;47165;42.664;23.368;2023-03-13T09:13:50;95516.91;;;5.75;45.81
61292;BME280;47165;42.664;23.368;2023-03-13T09:16:21;95515.44;;;5.96;45.51
61292;BME280;47165;42.664;23.368;2023-03-13T09:18:48;95512.03;;;5.94;44.31
61292;BME280;47165;42.664;23.368;2023-03-13T09:21:16;95505.66;;;6.06;44.68
61292;BME280;47165;42.664;23.368;2023-03-13T09:23:42;95505.22;;;6.20;44.50
61292;BME280;47165;42.664;23.368;2023-03-13T09:26:08;95502.41;;;6.28;44.31
61292;BME280;47165;42.664;23.368;2023-03-13T09:28:34;95506.00;;;6.50;44.36
61292;BME280;47165;42.664;23.368;2023-03-13T09:31:11;95506.47;;;6.61;43.75
61292;BME280;47165;42.664;23.368;2023-03-13T09:33:38;95505.59;;;6.62;43.49
61292;BME280;47165;42.664;23.368;2023-03-13T09:36:04;95499.78;;;6.81;43.88
61292;BME280;47165;42.664;23.368;2023-03-13T09:38:30;95505.53;;;6.89;43.23
61292;BME280;47165;42.664;23.368;2023-03-13T09:41:23;95506.59;;;7.09;43.14
61292;BME280;47165;42.664;23.368;2023-03-13T09:44:10;95494.97;;;7.19;41.94
61292;BME280;47165;42.664;23.368;2023-03-13T09:46:39;95496.84;;;7.39;41.03
61292;BME280;47165;42.664;23.368;2023-03-13T09:49:28;95496.28;;;7.54;41.57
61292;BME280;47165;42.664;23.368;2023-03-13T09:52:03;95501.88;;;7.67;41.37
61292;BME280;47165;42.664;23.368;2023-03-13T09:54:37;95490.53;;;7.70;41.21
61292;BME280;47165;42.664;23.368;2023-03-13T10:00:05;95491.03;;;7.79;41.22
61292;BME280;47165;42.664;23.368;2023-03-13T10:02:37;95485.22;;;7.95;40.99
61292;BME280;47165;42.664;23.368;2023-03-13T10:05:09;95484.88;;;8.04;40.69
61292;BME280;47165;42.664;23.368;2023-03-13T10:07:36;95481.09;;;8.11;40.81
61292;BME280;47165;42.664;23.368;2023-03-13T10:10:02;95484.00;;;8.25;40.86
61292;BME280;47165;42.664;23.368;2023-03-13T10:12:31;95470.88;;;8.29;40.32
61292;BME280;47165;42.664;23.368;2023-03-13T10:17:48;95471.28;;;8.62;38.71
61292;BME280;47165;42.664;23.368;2023-03-13T10:20:26;95450.84;;;8.53;38.42
61292;BME280;47165;42.664;23.368;2023-03-13T10:23:01;95446.44;;;8.33;38.51
61292;BME280;47165;42.664;23.368;2023-03-13T10:25:35;95453.28;;;8.57;38.52
61292;BME280;47165;42.664;23.368;2023-03-13T10:28:03;95438.75;;;8.52;38.40
61292;BME280;47165;42.664;23.368;2023-03-13T10:30:31;95430.69;;;8.78;38.48
61292;BME280;47165;42.664;23.368;2023-03-13T10:33:16;95432.94;;;9.06;38.08
61292;BME280;47165;42.664;23.368;2023-03-13T10:35:43;95426.41;;;9.36;37.23
61292;BME280;47165;42.664;23.368;2023-03-13T10:38:13;95426.75;;;9.47;36.79
61292;BME280;47165;42.664;23.368;2023-03-13T10:40:39;95429.09;;;9.72;37.16
61292;BME280;47165;42.664;23.368;2023-03-13T10:43:19;95413.13;;;9.97;36.77
61292;BME280;47165;42.664;23.368;2023-03-13T10:45:45;95413.84;;;10.18;35.73
61292;BME280;47165;42.664;23.368;2023-03-13T10:48:25;95408.97;;;10.47;36.80
61292;BME280;47165;42.664;23.368;2023-03-13T10:50:55;95390.34;;;10.88;35.77
61292;BME280;47165;42.664;23.368;2023-03-13T10:53:31;95405.47;;;11.32;34.87
61292;BME280;47165;42.664;23.368;2023-03-13T10:56:11;95384.16;;;11.56;34.35
61292;BME280;47165;42.664;23.368;2023-03-13T10:58:57;95397.31;;;11.70;33.03
61292;BME280;47165;42.664;23.368;2023-03-13T11:01:28;95392.50;;;11.78;32.21
61292;BME280;47165;42.664;23.368;2023-03-13T11:03:56;95375.47;;;12.03;32.56
61292;BME280;47165;42.664;23.368;2023-03-13T11:08:49;95378.47;;;12.72;32.37
61292;BME280;47165;42.664;23.368;2023-03-13T11:11:18;95365.63;;;12.67;30.72
61292;BME280;47165;42.664;23.368;2023-03-13T11:13:44;95355.53;;;12.61;32.11
61292;BME280;47165;42.664;23.368;2023-03-13T11:16:23;95360.16;;;13.15;31.43
61292;BME280;47165;42.664;23.368;2023-03-13T11:19:07;95361.06;;;13.57;31.44
61292;BME280;47165;42.664;23.368;2023-03-13T11:24:09;95346.69;;;14.44;30.32
61292;BME280;47165;42.664;23.368;2023-03-13T11:26:43;95344.16;;;14.29;29.20
61292;BME280;47165;42.664;23.368;2023-03-13T11:29:37;95343.19;;;14.96;29.37
61292;BME280;47165;42.664;23.368;2023-03-13T11:32:19;95325.25;;;15.89;28.48
61292;BME280;47165;42.664;23.368;2023-03-13T11:35:03;95334.97;;;17.06;25.37
61292;BME280;47165;42.664;23.368;2023-03-13T11:37:32;95325.53;;;17.81;24.16
61292;BME280;47165;42.664;23.368;2023-03-13T11:40:19;95322.13;;;18.66;23.14
61292;BME280;47165;42.664;23.368;2023-03-13T11:48:18;95302.50;;;20.02;21.03
61292;BME280;47165;42.664;23.368;2023-03-13T11:56:14;95279.22;;;20.64;20.71
61292;BME280;47165;42.664;23.368;2023-03-13T12:01:41;95283.38;;;21.23;20.32
61292;BME280;47165;42.664;23.368;2023-03-13T12:07:15;95261.63;;;21.47;20.12
61292;BME280;47165;42.664;23.368;2023-03-13T12:09:52;95261.66;;;21.65;20.19
61292;BME280;47165;42.664;23.368;2023-03-13T12:12:32;95256.47;;;21.92;19.09
61292;BME280;47165;42.664;23.368;2023-03-13T12:15:16;95251.69;;;22.13;19.19
61292;BME280;47165;42.664;23.368;2023-03-13T12:20:23;95241.34;;;22.46;18.60
61292;BME280;47165;42.664;23.368;2023-03-13T12:23:19;95242.59;;;22.60;18.20
61292;BME280;47165;42.664;23.368;2023-03-13T12:25:52;95239.44;;;22.56;18.12
61292;BME280;47165;42.664;23.368;2023-03-13T12:33:34;95229.78;;;22.37;18.46
61292;BME280;47165;42.664;23.368;2023-03-13T12:41:43;95228.91;;;22.28;19.02
61292;BME280;47165;42.664;23.368;2023-03-13T12:44:17;95219.22;;;22.72;18.41
61292;BME280;47165;42.664;23.368;2023-03-13T12:47:15;95222.66;;;22.90;18.07
61292;BME280;47165;42.664;23.368;2023-03-13T12:58:03;95229.78;;;21.83;18.69
61292;BME280;47165;42.664;23.368;2023-03-13T13:00:35;95233.38;;;22.10;18.53
61292;BME280;47165;42.664;23.368;2023-03-13T13:06:02;95235.94;;;22.82;18.49
61292;BME280;47165;42.664;23.368;2023-03-13T13:11:33;95230.84;;;22.97;17.22
61292;BME280;47165;42.664;23.368;2023-03-13T13:16:49;95227.44;;;23.39;17.75
61292;BME280;47165;42.664;23.368;2023-03-13T13:25:01;95218.94;;;23.78;16.97
61292;BME280;47165;42.664;23.368;2023-03-13T13:30:48;95200.25;;;23.78;17.35
61292;BME280;47165;42.664;23.368;2023-03-13T13:32:50;95198.97;;;24.06;16.87
61292;BME280;47165;42.664;23.368;2023-03-13T13:35:28;95199.09;;;23.88;16.83
61292;BME280;47165;42.664;23.368;2023-03-13T13:40:58;95204.31;;;23.05;18.00
61292;BME280;47165;42.664;23.368;2023-03-13T13:43:24;95202.03;;;23.18;17.75
61292;BME280;47165;42.664;23.368;2023-03-13T13:46:23;95193.38;;;23.67;17.58
61292;BME280;47165;42.664;23.368;2023-03-13T13:49:19;95200.13;;;24.04;16.94
61292;BME280;47165;42.664;23.368;2023-03-13T13:57:09;95193.09;;;24.77;16.98
61292;BME280;47165;42.664;23.368;2023-03-13T13:59:44;95191.25;;;24.77;16.14
61292;BME280;47165;42.664;23.368;2023-03-13T14:02:25;95192.47;;;24.58;16.96
61292;BME280;47165;42.664;23.368;2023-03-13T14:05:14;95191.13;;;24.21;16.15
61292;BME280;47165;42.664;23.368;2023-03-13T14:07:51;95188.97;;;24.17;16.85
61292;BME280;47165;42.664;23.368;2023-03-13T14:10:30;95187.13;;;24.25;16.62
61292;BME280;47165;42.664;23.368;2023-03-13T14:12:59;95189.63;;;24.27;17.02
61292;BME280;47165;42.664;23.368;2023-03-13T14:15:29;95185.47;;;24.24;16.72
61292;BME280;47165;42.664;23.368;2023-03-13T14:23:14;95184.53;;;23.75;17.04
61292;BME280;47165;42.664;23.368;2023-03-13T14:25:49;95182.72;;;23.67;16.85
61292;BME280;47165;42.664;23.368;2023-03-13T14:28:26;95180.66;;;23.44;16.95
61292;BME280;47165;42.664;23.368;2023-03-13T14:30:55;95180.66;;;23.44;16.89
61292;BME280;47165;42.664;23.368;2023-03-13T14:33:22;95176.69;;;23.57;17.43
61292;BME280;47165;42.664;23.368;2023-03-13T14:35:48;95174.66;;;23.42;17.09
61292;BME280;47165;42.664;23.368;2023-03-13T14:38:21;95180.16;;;23.49;17.38